sensor_id;sensor_type;location;lat;lon;timestamp;P1;durP1;ratioP1;P2;durP2;ratioP2
29044;SDS011;16133;49.486;12.176;2022-07-26T00:01:53;17.25;;;11.43;;
29044;SDS011;16133;49.486;12.176;2022-07-26T00:04:18;15.57;;;10.82;;
29044;SDS011;16133;49.486;12.176;2022-07-26T00:06:44;14.82;;;10.25;;
29044;SDS011;16133;49.486;12.176;2022-07-26T00:09:09;16.98;;;10.60;;
29044;SDS011;16133;49.486;12.176;2022-07-26T00:11:34;16.88;;;11.43;;
29044;SDS011;16133;49.486;12.176;2022-07-26T00:14:04;20.20;;;12.18;;
29044;SDS011;16133;49.486;12.176;2022-07-26T00:16:31;17.85;;;10.68;;
29044;SDS011;16133;49.486;12.176;2022-07-26T00:18:57;19.73;;;11.43;;
29044;SDS011;16133;49.486;12.176;2022-07-26T00:21:22;16.70;;;10.45;;
29044;SDS011;16133;49.486;12.176;2022-07-26T00:24:07;20.23;;;10.60;;
29044;SDS011;16133;49.486;12.176;2022-07-26T00:26:51;21.92;;;9.65;;
29044;SDS011;16133;49.486;12.176;2022-07-26T00:29:16;12.88;;;9.57;;
29044;SDS011;16133;49.486;12.176;2022-07-26T00:31:42;14.70;;;8.23;;
29044;SDS011;16133;49.486;12.176;2022-07-26T00:34:07;13.95;;;8.50;;
29044;SDS011;16133;49.486;12.176;2022-07-26T00:36:33;13.02;;;8.38;;
29044;SDS011;16133;49.486;12.176;2022-07-26T00:38:58;15.55;;;8.80;;
29044;SDS011;16133;49.486;12.176;2022-07-26T00:41:23;14.02;;;8.32;;
29044;SDS011;16133;49.486;12.176;2022-07-26T00:43:53;13.65;;;8.57;;
29044;SDS011;16133;49.486;12.176;2022-07-26T00:46:22;13.05;;;8.20;;
29044;SDS011;16133;49.486;12.176;2022-07-26T00:48:48;14.48;;;7.72;;
29044;SDS011;16133;49.486;12.176;2022-07-26T00:51:14;13.98;;;7.47;;
29044;SDS011;16133;49.486;12.176;2022-07-26T00:53:39;9.55;;;6.85;;
29044;SDS011;16133;49.486;12.176;2022-07-26T00:56:04;13.70;;;8.43;;
29044;SDS011;16133;49.486;12.176;2022-07-26T00:58:30;11.02;;;7.40;;
29044;SDS011;16133;49.486;12.176;2022-07-26T01:00:55;12.52;;;7.68;;
29044;SDS011;16133;49.486;12.176;2022-07-26T01:03:21;9.45;;;6.95;;
29044;SDS011;16133;49.486;12.176;2022-07-26T01:05:46;12.05;;;8.20;;
29044;SDS011;16133;49.486;12.176;2022-07-26T01:08:12;10.13;;;6.90;;
29044;SDS011;16133;49.486;12.176;2022-07-26T01:10:38;10.35;;;7.45;;
29044;SDS011;16133;49.486;12.176;2022-07-26T01:13:04;10.43;;;7.38;;
29044;SDS011;16133;49.486;12.176;2022-07-26T01:15:29;10.20;;;6.88;;
29044;SDS011;16133;49.486;12.176;2022-07-26T01:17:55;9.48;;;7.15;;
29044;SDS011;16133;49.486;12.176;2022-07-26T01:20:20;11.93;;;7.72;;
29044;SDS011;16133;49.486;12.176;2022-07-26T01:22:46;12.88;;;7.68;;
29044;SDS011;16133;49.486;12.176;2022-07-26T01:25:11;15.77;;;6.95;;
29044;SDS011;16133;49.486;12.176;2022-07-26T01:27:37;11.23;;;7.30;;
29044;SDS011;16133;49.486;12.176;2022-07-26T01:30:06;10.93;;;7.43;;
29044;SDS011;16133;49.486;12.176;2022-07-26T01:32:34;10.90;;;6.68;;
29044;SDS011;16133;49.486;12.176;2022-07-26T01:34:59;10.57;;;7.47;;
29044;SDS011;16133;49.486;12.176;2022-07-26T01:37:25;10.35;;;7.20;;
29044;SDS011;16133;49.486;12.176;2022-07-26T01:39:50;9.38;;;6.78;;
29044;SDS011;16133;49.486;12.176;2022-07-26T01:42:16;14.45;;;7.35;;
29044;SDS011;16133;49.486;12.176;2022-07-26T01:44:41;13.55;;;7.53;;
29044;SDS011;16133;49.486;12.176;2022-07-26T01:47:06;9.35;;;6.80;;
29044;SDS011;16133;49.486;12.176;2022-07-26T01:49:32;8.27;;;6.43;;
29044;SDS011;16133;49.486;12.176;2022-07-26T01:51:57;9.23;;;6.25;;
29044;SDS011;16133;49.486;12.176;2022-07-26T01:54:23;13.52;;;6.20;;
29044;SDS011;16133;49.486;12.176;2022-07-26T01:56:48;9.15;;;6.57;;
29044;SDS011;16133;49.486;12.176;2022-07-26T01:59:13;10.07;;;5.93;;
29044;SDS011;16133;49.486;12.176;2022-07-26T02:01:39;9.10;;;7.05;;
29044;SDS011;16133;49.486;12.176;2022-07-26T02:04:04;9.35;;;6.53;;
29044;SDS011;16133;49.486;12.176;2022-07-26T02:06:29;7.15;;;5.70;;
29044;SDS011;16133;49.486;12.176;2022-07-26T02:08:55;11.60;;;6.45;;
29044;SDS011;16133;49.486;12.176;2022-07-26T02:11:20;9.55;;;7.85;;
29044;SDS011;16133;49.486;12.176;2022-07-26T02:13:46;10.15;;;6.43;;
29044;SDS011;16133;49.486;12.176;2022-07-26T02:16:12;7.03;;;5.88;;
29044;SDS011;16133;49.486;12.176;2022-07-26T02:18:39;8.20;;;6.07;;
29044;SDS011;16133;49.486;12.176;2022-07-26T02:21:04;9.00;;;6.57;;
29044;SDS011;16133;49.486;12.176;2022-07-26T02:23:30;7.30;;;5.75;;
29044;SDS011;16133;49.486;12.176;2022-07-26T02:25:56;7.30;;;5.80;;
29044;SDS011;16133;49.486;12.176;2022-07-26T02:28:22;6.78;;;5.47;;
29044;SDS011;16133;49.486;12.176;2022-07-26T02:30:48;7.82;;;5.70;;
29044;SDS011;16133;49.486;12.176;2022-07-26T02:33:14;8.48;;;6.60;;
29044;SDS011;16133;49.486;12.176;2022-07-26T02:35:40;9.27;;;6.20;;
29044;SDS011;16133;49.486;12.176;2022-07-26T02:38:08;8.90;;;7.15;;
29044;SDS011;16133;49.486;12.176;2022-07-26T02:40:36;9.35;;;6.45;;
29044;SDS011;16133;49.486;12.176;2022-07-26T02:43:03;9.82;;;6.97;;
29044;SDS011;16133;49.486;12.176;2022-07-26T02:45:30;10.50;;;6.82;;
29044;SDS011;16133;49.486;12.176;2022-07-26T02:47:55;9.80;;;6.78;;
29044;SDS011;16133;49.486;12.176;2022-07-26T02:50:21;10.27;;;6.85;;
29044;SDS011;16133;49.486;12.176;2022-07-26T02:52:48;8.82;;;6.63;;
29044;SDS011;16133;49.486;12.176;2022-07-26T02:55:15;12.60;;;7.55;;
29044;SDS011;16133;49.486;12.176;2022-07-26T02:57:42;11.10;;;7.95;;
29044;SDS011;16133;49.486;12.176;2022-07-26T03:00:09;12.52;;;8.35;;
29044;SDS011;16133;49.486;12.176;2022-07-26T03:02:36;11.25;;;7.70;;
29044;SDS011;16133;49.486;12.176;2022-07-26T03:05:02;11.95;;;8.05;;
29044;SDS011;16133;49.486;12.176;2022-07-26T03:07:29;10.82;;;7.97;;
29044;SDS011;16133;49.486;12.176;2022-07-26T03:09:54;11.18;;;7.88;;
29044;SDS011;16133;49.486;12.176;2022-07-26T03:12:19;11.63;;;8.10;;
29044;SDS011;16133;49.486;12.176;2022-07-26T03:14:45;9.93;;;7.85;;
29044;SDS011;16133;49.486;12.176;2022-07-26T03:17:10;10.80;;;7.75;;
29044;SDS011;16133;49.486;12.176;2022-07-26T03:19:35;12.32;;;8.05;;
29044;SDS011;16133;49.486;12.176;2022-07-26T03:22:01;13.60;;;9.50;;
29044;SDS011;16133;49.486;12.176;2022-07-26T03:24:26;15.07;;;9.35;;
29044;SDS011;16133;49.486;12.176;2022-07-26T03:26:52;14.38;;;9.55;;
29044;SDS011;16133;49.486;12.176;2022-07-26T03:29:17;12.25;;;8.75;;
29044;SDS011;16133;49.486;12.176;2022-07-26T03:31:57;11.82;;;8.15;;
29044;SDS011;16133;49.486;12.176;2022-07-26T03:34:23;11.18;;;7.85;;
29044;SDS011;16133;49.486;12.176;2022-07-26T03:36:48;10.43;;;7.57;;
29044;SDS011;16133;49.486;12.176;2022-07-26T03:39:14;12.93;;;8.15;;
29044;SDS011;16133;49.486;12.176;2022-07-26T03:41:39;12.25;;;8.13;;
29044;SDS011;16133;49.486;12.176;2022-07-26T03:44:05;11.93;;;7.97;;
29044;SDS011;16133;49.486;12.176;2022-07-26T03:46:30;11.70;;;8.48;;
29044;SDS011;16133;49.486;12.176;2022-07-26T03:48:56;10.50;;;7.28;;
29044;SDS011;16133;49.486;12.176;2022-07-26T03:51:21;12.18;;;7.00;;
29044;SDS011;16133;49.486;12.176;2022-07-26T03:53:47;9.13;;;7.07;;
29044;SDS011;16133;49.486;12.176;2022-07-26T03:56:13;10.15;;;6.78;;
29044;SDS011;16133;49.486;12.176;2022-07-26T03:59:06;8.88;;;6.78;;
29044;SDS011;16133;49.486;12.176;2022-07-26T04:01:33;9.40;;;6.57;;
29044;SDS011;16133;49.486;12.176;2022-07-26T04:03:59;10.88;;;8.10;;
29044;SDS011;16133;49.486;12.176;2022-07-26T04:06:25;13.77;;;7.50;;
29044;SDS011;16133;49.486;12.176;2022-07-26T04:08:51;9.93;;;7.70;;
29044;SDS011;16133;49.486;12.176;2022-07-26T04:11:17;10.68;;;7.45;;
29044;SDS011;16133;49.486;12.176;2022-07-26T04:13:42;11.43;;;7.03;;
29044;SDS011;16133;49.486;12.176;2022-07-26T04:16:08;9.75;;;6.72;;
29044;SDS011;16133;49.486;12.176;2022-07-26T04:18:33;10.55;;;7.18;;
29044;SDS011;16133;49.486;12.176;2022-07-26T04:20:58;10.32;;;7.45;;
29044;SDS011;16133;49.486;12.176;2022-07-26T04:23:24;9.30;;;7.13;;
29044;SDS011;16133;49.486;12.176;2022-07-26T04:25:49;12.40;;;7.97;;
29044;SDS011;16133;49.486;12.176;2022-07-26T04:28:15;9.32;;;7.13;;
29044;SDS011;16133;49.486;12.176;2022-07-26T04:30:40;11.52;;;7.32;;
29044;SDS011;16133;49.486;12.176;2022-07-26T04:33:06;11.32;;;8.00;;
29044;SDS011;16133;49.486;12.176;2022-07-26T04:35:32;10.73;;;7.10;;
29044;SDS011;16133;49.486;12.176;2022-07-26T04:37:58;12.52;;;7.55;;
29044;SDS011;16133;49.486;12.176;2022-07-26T04:40:24;10.25;;;6.97;;
29044;SDS011;16133;49.486;12.176;2022-07-26T04:42:52;10.15;;;7.43;;
29044;SDS011;16133;49.486;12.176;2022-07-26T04:45:18;11.57;;;7.25;;
29044;SDS011;16133;49.486;12.176;2022-07-26T04:47:46;12.52;;;7.55;;
29044;SDS011;16133;49.486;12.176;2022-07-26T04:50:14;10.02;;;7.47;;
29044;SDS011;16133;49.486;12.176;2022-07-26T04:52:40;9.95;;;7.57;;
29044;SDS011;16133;49.486;12.176;2022-07-26T04:55:06;9.18;;;7.00;;
29044;SDS011;16133;49.486;12.176;2022-07-26T04:57:33;13.00;;;8.70;;
29044;SDS011;16133;49.486;12.176;2022-07-26T04:59:59;9.77;;;7.55;;
29044;SDS011;16133;49.486;12.176;2022-07-26T05:02:25;10.48;;;6.82;;
29044;SDS011;16133;49.486;12.176;2022-07-26T05:04:51;9.80;;;7.65;;
29044;SDS011;16133;49.486;12.176;2022-07-26T05:07:16;9.57;;;6.68;;
29044;SDS011;16133;49.486;12.176;2022-07-26T05:09:41;9.32;;;6.15;;
29044;SDS011;16133;49.486;12.176;2022-07-26T05:12:07;7.25;;;5.45;;
29044;SDS011;16133;49.486;12.176;2022-07-26T05:14:33;8.35;;;6.43;;
29044;SDS011;16133;49.486;12.176;2022-07-26T05:17:01;12.27;;;5.47;;
29044;SDS011;16133;49.486;12.176;2022-07-26T05:19:27;10.70;;;5.43;;
29044;SDS011;16133;49.486;12.176;2022-07-26T05:21:52;9.20;;;4.82;;
29044;SDS011;16133;49.486;12.176;2022-07-26T05:24:17;7.97;;;4.70;;
29044;SDS011;16133;49.486;12.176;2022-07-26T05:26:43;11.55;;;3.92;;
29044;SDS011;16133;49.486;12.176;2022-07-26T05:29:08;7.07;;;4.20;;
29044;SDS011;16133;49.486;12.176;2022-07-26T05:31:33;6.93;;;4.38;;
29044;SDS011;16133;49.486;12.176;2022-07-26T05:33:59;6.38;;;3.38;;
29044;SDS011;16133;49.486;12.176;2022-07-26T05:36:24;6.30;;;3.88;;
29044;SDS011;16133;49.486;12.176;2022-07-26T05:38:50;8.27;;;3.85;;
29044;SDS011;16133;49.486;12.176;2022-07-26T05:41:15;13.18;;;4.03;;
29044;SDS011;16133;49.486;12.176;2022-07-26T05:43:40;7.45;;;4.68;;
29044;SDS011;16133;49.486;12.176;2022-07-26T05:46:06;7.43;;;3.72;;
29044;SDS011;16133;49.486;12.176;2022-07-26T05:48:31;7.97;;;3.75;;
29044;SDS011;16133;49.486;12.176;2022-07-26T05:50:58;9.77;;;3.83;;
29044;SDS011;16133;49.486;12.176;2022-07-26T05:53:24;6.95;;;3.78;;
29044;SDS011;16133;49.486;12.176;2022-07-26T05:55:50;7.70;;;3.88;;
29044;SDS011;16133;49.486;12.176;2022-07-26T05:58:16;5.93;;;4.00;;
29044;SDS011;16133;49.486;12.176;2022-07-26T06:00:41;7.95;;;3.38;;
29044;SDS011;16133;49.486;12.176;2022-07-26T06:03:06;6.03;;;3.38;;
29044;SDS011;16133;49.486;12.176;2022-07-26T06:05:47;6.57;;;3.58;;
29044;SDS011;16133;49.486;12.176;2022-07-26T06:08:14;10.30;;;3.63;;
29044;SDS011;16133;49.486;12.176;2022-07-26T06:10:39;6.80;;;3.80;;
29044;SDS011;16133;49.486;12.176;2022-07-26T06:13:04;5.85;;;3.75;;
29044;SDS011;16133;49.486;12.176;2022-07-26T06:15:30;4.68;;;3.33;;
29044;SDS011;16133;49.486;12.176;2022-07-26T06:17:55;5.65;;;3.17;;
29044;SDS011;16133;49.486;12.176;2022-07-26T06:20:21;4.47;;;2.83;;
29044;SDS011;16133;49.486;12.176;2022-07-26T06:22:46;5.30;;;3.50;;
29044;SDS011;16133;49.486;12.176;2022-07-26T06:25:11;5.45;;;3.17;;
29044;SDS011;16133;49.486;12.176;2022-07-26T06:27:37;6.97;;;2.60;;
29044;SDS011;16133;49.486;12.176;2022-07-26T06:30:03;8.40;;;3.15;;
29044;SDS011;16133;49.486;12.176;2022-07-26T06:32:28;8.13;;;2.83;;
29044;SDS011;16133;49.486;12.176;2022-07-26T06:34:54;5.80;;;2.78;;
29044;SDS011;16133;49.486;12.176;2022-07-26T06:37:19;9.50;;;3.00;;
29044;SDS011;16133;49.486;12.176;2022-07-26T06:39:44;4.05;;;2.20;;
29044;SDS011;16133;49.486;12.176;2022-07-26T06:42:10;3.63;;;2.20;;
29044;SDS011;16133;49.486;12.176;2022-07-26T06:44:35;4.53;;;2.50;;
29044;SDS011;16133;49.486;12.176;2022-07-26T06:47:01;3.72;;;2.33;;
29044;SDS011;16133;49.486;12.176;2022-07-26T06:49:26;5.75;;;2.10;;
29044;SDS011;16133;49.486;12.176;2022-07-26T06:51:51;4.85;;;2.22;;
29044;SDS011;16133;49.486;12.176;2022-07-26T06:54:17;2.45;;;1.60;;
29044;SDS011;16133;49.486;12.176;2022-07-26T06:56:42;3.30;;;1.85;;
29044;SDS011;16133;49.486;12.176;2022-07-26T06:59:08;4.05;;;1.90;;
29044;SDS011;16133;49.486;12.176;2022-07-26T07:01:34;3.90;;;1.77;;
29044;SDS011;16133;49.486;12.176;2022-07-26T07:03:59;4.25;;;1.85;;
29044;SDS011;16133;49.486;12.176;2022-07-26T07:06:24;1.48;;;1.33;;
29044;SDS011;16133;49.486;12.176;2022-07-26T07:08:50;2.78;;;1.70;;
29044;SDS011;16133;49.486;12.176;2022-07-26T07:11:15;2.58;;;1.52;;
29044;SDS011;16133;49.486;12.176;2022-07-26T07:13:41;3.92;;;2.08;;
29044;SDS011;16133;49.486;12.176;2022-07-26T07:16:06;3.67;;;1.85;;
29044;SDS011;16133;49.486;12.176;2022-07-26T07:18:32;2.05;;;1.55;;
29044;SDS011;16133;49.486;12.176;2022-07-26T07:20:57;2.95;;;2.13;;
29044;SDS011;16133;49.486;12.176;2022-07-26T07:23:23;3.90;;;1.83;;
29044;SDS011;16133;49.486;12.176;2022-07-26T07:25:48;4.43;;;2.20;;
29044;SDS011;16133;49.486;12.176;2022-07-26T07:28:14;10.40;;;2.40;;
29044;SDS011;16133;49.486;12.176;2022-07-26T07:30:40;3.35;;;1.95;;
29044;SDS011;16133;49.486;12.176;2022-07-26T07:33:05;4.03;;;1.63;;
29044;SDS011;16133;49.486;12.176;2022-07-26T07:35:33;5.32;;;2.13;;
29044;SDS011;16133;49.486;12.176;2022-07-26T07:37:59;6.13;;;2.25;;
29044;SDS011;16133;49.486;12.176;2022-07-26T07:40:24;4.15;;;2.10;;
29044;SDS011;16133;49.486;12.176;2022-07-26T07:42:50;4.65;;;1.85;;
29044;SDS011;16133;49.486;12.176;2022-07-26T07:45:15;4.97;;;2.08;;
29044;SDS011;16133;49.486;12.176;2022-07-26T07:47:41;2.78;;;1.50;;
29044;SDS011;16133;49.486;12.176;2022-07-26T07:50:06;4.82;;;2.03;;
29044;SDS011;16133;49.486;12.176;2022-07-26T07:52:32;3.95;;;1.67;;
29044;SDS011;16133;49.486;12.176;2022-07-26T07:54:57;4.93;;;2.33;;
29044;SDS011;16133;49.486;12.176;2022-07-26T07:57:23;6.93;;;2.00;;
29044;SDS011;16133;49.486;12.176;2022-07-26T07:59:48;3.55;;;2.00;;
29044;SDS011;16133;49.486;12.176;2022-07-26T08:02:13;3.03;;;2.30;;
29044;SDS011;16133;49.486;12.176;2022-07-26T08:04:39;7.05;;;2.28;;
29044;SDS011;16133;49.486;12.176;2022-07-26T08:07:05;4.90;;;2.22;;
29044;SDS011;16133;49.486;12.176;2022-07-26T08:09:30;3.38;;;1.58;;
29044;SDS011;16133;49.486;12.176;2022-07-26T08:11:56;4.05;;;1.88;;
29044;SDS011;16133;49.486;12.176;2022-07-26T08:14:21;3.97;;;2.35;;
29044;SDS011;16133;49.486;12.176;2022-07-26T08:16:47;4.25;;;1.80;;
29044;SDS011;16133;49.486;12.176;2022-07-26T08:19:12;4.35;;;1.70;;
29044;SDS011;16133;49.486;12.176;2022-07-26T08:21:38;5.18;;;2.05;;
29044;SDS011;16133;49.486;12.176;2022-07-26T08:24:03;5.30;;;1.65;;
29044;SDS011;16133;49.486;12.176;2022-07-26T08:26:29;5.18;;;2.03;;
29044;SDS011;16133;49.486;12.176;2022-07-26T08:28:54;6.60;;;2.13;;
29044;SDS011;16133;49.486;12.176;2022-07-26T08:31:20;6.80;;;2.10;;
29044;SDS011;16133;49.486;12.176;2022-07-26T08:33:46;6.07;;;2.17;;
29044;SDS011;16133;49.486;12.176;2022-07-26T08:36:12;3.38;;;1.88;;
29044;SDS011;16133;49.486;12.176;2022-07-26T08:38:39;5.55;;;2.20;;
29044;SDS011;16133;49.486;12.176;2022-07-26T08:41:04;4.10;;;1.90;;
29044;SDS011;16133;49.486;12.176;2022-07-26T08:43:30;1.77;;;1.38;;
29044;SDS011;16133;49.486;12.176;2022-07-26T08:45:59;4.35;;;2.28;;
29044;SDS011;16133;49.486;12.176;2022-07-26T08:48:26;4.28;;;1.80;;
29044;SDS011;16133;49.486;12.176;2022-07-26T08:50:51;4.15;;;1.88;;
29044;SDS011;16133;49.486;12.176;2022-07-26T08:53:19;3.75;;;1.90;;
29044;SDS011;16133;49.486;12.176;2022-07-26T08:55:45;8.75;;;1.95;;
29044;SDS011;16133;49.486;12.176;2022-07-26T08:58:10;5.50;;;1.88;;
29044;SDS011;16133;49.486;12.176;2022-07-26T09:00:35;1.73;;;1.20;;
29044;SDS011;16133;49.486;12.176;2022-07-26T09:03:01;4.93;;;1.98;;
29044;SDS011;16133;49.486;12.176;2022-07-26T09:07:57;4.65;;;1.73;;
29044;SDS011;16133;49.486;12.176;2022-07-26T09:10:23;5.00;;;1.85;;
29044;SDS011;16133;49.486;12.176;2022-07-26T09:12:55;4.43;;;1.77;;
29044;SDS011;16133;49.486;12.176;2022-07-26T09:17:49;2.58;;;1.45;;
29044;SDS011;16133;49.486;12.176;2022-07-26T09:20:30;4.70;;;2.15;;
29044;SDS011;16133;49.486;12.176;2022-07-26T09:25:25;1.70;;;1.60;;
29044;SDS011;16133;49.486;12.176;2022-07-26T09:27:52;4.43;;;1.58;;
29044;SDS011;16133;49.486;12.176;2022-07-26T09:30:18;4.18;;;1.65;;
29044;SDS011;16133;49.486;12.176;2022-07-26T09:35:27;3.38;;;1.40;;
29044;SDS011;16133;49.486;12.176;2022-07-26T09:37:54;4.40;;;1.63;;
29044;SDS011;16133;49.486;12.176;2022-07-26T09:40:20;2.42;;;1.58;;
29044;SDS011;16133;49.486;12.176;2022-07-26T09:42:56;6.13;;;1.80;;
29044;SDS011;16133;49.486;12.176;2022-07-26T09:45:24;6.28;;;1.70;;
29044;SDS011;16133;49.486;12.176;2022-07-26T09:47:51;1.75;;;1.52;;
29044;SDS011;16133;49.486;12.176;2022-07-26T09:50:18;3.00;;;1.48;;
29044;SDS011;16133;49.486;12.176;2022-07-26T09:55:25;3.03;;;1.60;;
29044;SDS011;16133;49.486;12.176;2022-07-26T09:57:51;5.57;;;1.70;;
29044;SDS011;16133;49.486;12.176;2022-07-26T10:00:17;2.97;;;1.83;;
29044;SDS011;16133;49.486;12.176;2022-07-26T10:02:43;3.80;;;1.77;;
29044;SDS011;16133;49.486;12.176;2022-07-26T10:05:09;7.43;;;1.83;;
29044;SDS011;16133;49.486;12.176;2022-07-26T10:07:35;5.15;;;2.28;;
29044;SDS011;16133;49.486;12.176;2022-07-26T10:10:12;2.38;;;1.63;;
29044;SDS011;16133;49.486;12.176;2022-07-26T10:12:41;2.35;;;1.35;;
29044;SDS011;16133;49.486;12.176;2022-07-26T10:18:09;2.83;;;1.60;;
29044;SDS011;16133;49.486;12.176;2022-07-26T10:20:55;5.30;;;1.95;;
29044;SDS011;16133;49.486;12.176;2022-07-26T10:24:23;5.93;;;1.73;;
29044;SDS011;16133;49.486;12.176;2022-07-26T10:34:29;4.82;;;1.70;;
29044;SDS011;16133;49.486;12.176;2022-07-26T10:36:56;3.65;;;2.13;;
29044;SDS011;16133;49.486;12.176;2022-07-26T10:39:26;4.32;;;2.25;;
29044;SDS011;16133;49.486;12.176;2022-07-26T10:41:57;4.15;;;1.67;;
29044;SDS011;16133;49.486;12.176;2022-07-26T10:46:57;2.60;;;1.55;;
29044;SDS011;16133;49.486;12.176;2022-07-26T10:49:51;2.15;;;1.90;;
29044;SDS011;16133;49.486;12.176;2022-07-26T10:52:25;4.53;;;1.75;;
29044;SDS011;16133;49.486;12.176;2022-07-26T10:57:21;4.15;;;2.10;;
29044;SDS011;16133;49.486;12.176;2022-07-26T10:59:51;5.72;;;2.03;;
29044;SDS011;16133;49.486;12.176;2022-07-26T11:02:17;5.22;;;2.25;;
29044;SDS011;16133;49.486;12.176;2022-07-26T11:04:43;2.53;;;1.77;;
29044;SDS011;16133;49.486;12.176;2022-07-26T11:07:09;4.07;;;1.80;;
29044;SDS011;16133;49.486;12.176;2022-07-26T11:09:34;5.07;;;2.33;;
29044;SDS011;16133;49.486;12.176;2022-07-26T11:12:18;4.07;;;1.85;;
29044;SDS011;16133;49.486;12.176;2022-07-26T11:14:45;6.88;;;2.10;;
29044;SDS011;16133;49.486;12.176;2022-07-26T11:17:30;3.72;;;1.60;;
29044;SDS011;16133;49.486;12.176;2022-07-26T11:19:55;3.13;;;2.00;;
29044;SDS011;16133;49.486;12.176;2022-07-26T11:22:21;5.93;;;1.88;;
29044;SDS011;16133;49.486;12.176;2022-07-26T11:24:54;4.88;;;1.60;;
29044;SDS011;16133;49.486;12.176;2022-07-26T11:27:20;2.65;;;1.70;;
29044;SDS011;16133;49.486;12.176;2022-07-26T11:29:45;6.32;;;1.75;;
29044;SDS011;16133;49.486;12.176;2022-07-26T11:32:29;3.20;;;1.88;;
29044;SDS011;16133;49.486;12.176;2022-07-26T11:35:01;2.88;;;1.80;;
29044;SDS011;16133;49.486;12.176;2022-07-26T11:37:29;5.22;;;1.90;;
29044;SDS011;16133;49.486;12.176;2022-07-26T11:39:54;6.55;;;1.98;;
29044;SDS011;16133;49.486;12.176;2022-07-26T11:42:20;3.20;;;1.98;;
29044;SDS011;16133;49.486;12.176;2022-07-26T11:44:46;2.72;;;1.50;;
29044;SDS011;16133;49.486;12.176;2022-07-26T11:47:17;4.10;;;1.67;;
29044;SDS011;16133;49.486;12.176;2022-07-26T11:49:44;5.90;;;2.10;;
29044;SDS011;16133;49.486;12.176;2022-07-26T11:52:10;3.33;;;1.80;;
29044;SDS011;16133;49.486;12.176;2022-07-26T11:57:13;1.65;;;1.50;;
29044;SDS011;16133;49.486;12.176;2022-07-26T11:59:39;3.88;;;2.05;;
29044;SDS011;16133;49.486;12.176;2022-07-26T12:02:06;5.47;;;1.75;;
29044;SDS011;16133;49.486;12.176;2022-07-26T12:04:34;3.55;;;1.77;;
29044;SDS011;16133;49.486;12.176;2022-07-26T12:09:40;3.92;;;2.35;;
29044;SDS011;16133;49.486;12.176;2022-07-26T12:12:20;3.67;;;1.92;;
29044;SDS011;16133;49.486;12.176;2022-07-26T12:17:25;5.30;;;1.98;;
29044;SDS011;16133;49.486;12.176;2022-07-26T12:19:51;4.93;;;1.83;;
29044;SDS011;16133;49.486;12.176;2022-07-26T12:22:20;3.67;;;1.77;;
29044;SDS011;16133;49.486;12.176;2022-07-26T12:27:29;8.18;;;2.20;;
29044;SDS011;16133;49.486;12.176;2022-07-26T12:35:09;4.45;;;1.80;;
29044;SDS011;16133;49.486;12.176;2022-07-26T12:37:48;3.88;;;2.17;;
29044;SDS011;16133;49.486;12.176;2022-07-26T12:40:20;11.32;;;2.67;;
29044;SDS011;16133;49.486;12.176;2022-07-26T12:45:16;2.85;;;1.80;;
29044;SDS011;16133;49.486;12.176;2022-07-26T12:47:45;2.40;;;1.50;;
29044;SDS011;16133;49.486;12.176;2022-07-26T12:50:12;1.67;;;1.17;;
29044;SDS011;16133;49.486;12.176;2022-07-26T12:52:39;4.13;;;1.92;;
29044;SDS011;16133;49.486;12.176;2022-07-26T12:55:05;2.30;;;1.48;;
29044;SDS011;16133;49.486;12.176;2022-07-26T12:57:34;3.35;;;1.30;;
29044;SDS011;16133;49.486;12.176;2022-07-26T12:59:59;2.85;;;1.40;;
29044;SDS011;16133;49.486;12.176;2022-07-26T13:02:25;2.63;;;1.60;;
29044;SDS011;16133;49.486;12.176;2022-07-26T13:04:50;4.13;;;2.10;;
29044;SDS011;16133;49.486;12.176;2022-07-26T13:07:17;10.77;;;1.70;;
29044;SDS011;16133;49.486;12.176;2022-07-26T13:09:44;2.88;;;1.90;;
29044;SDS011;16133;49.486;12.176;2022-07-26T13:12:10;2.80;;;1.90;;
29044;SDS011;16133;49.486;12.176;2022-07-26T13:14:37;3.88;;;1.48;;
29044;SDS011;16133;49.486;12.176;2022-07-26T13:17:03;3.90;;;1.50;;
29044;SDS011;16133;49.486;12.176;2022-07-26T13:19:29;2.85;;;1.90;;
29044;SDS011;16133;49.486;12.176;2022-07-26T13:21:55;2.50;;;1.73;;
29044;SDS011;16133;49.486;12.176;2022-07-26T13:24:22;4.18;;;1.80;;
29044;SDS011;16133;49.486;12.176;2022-07-26T13:26:48;3.42;;;1.67;;
29044;SDS011;16133;49.486;12.176;2022-07-26T13:29:14;1.80;;;1.40;;
29044;SDS011;16133;49.486;12.176;2022-07-26T13:31:39;3.58;;;1.40;;
29044;SDS011;16133;49.486;12.176;2022-07-26T13:34:04;3.47;;;1.55;;
29044;SDS011;16133;49.486;12.176;2022-07-26T13:36:30;2.80;;;1.30;;
29044;SDS011;16133;49.486;12.176;2022-07-26T13:38:55;3.70;;;1.48;;
29044;SDS011;16133;49.486;12.176;2022-07-26T13:41:21;4.72;;;1.50;;
29044;SDS011;16133;49.486;12.176;2022-07-26T13:43:46;2.58;;;1.08;;
29044;SDS011;16133;49.486;12.176;2022-07-26T13:46:12;4.55;;;1.65;;
29044;SDS011;16133;49.486;12.176;2022-07-26T13:48:37;3.55;;;1.65;;
29044;SDS011;16133;49.486;12.176;2022-07-26T13:51:03;4.93;;;1.73;;
29044;SDS011;16133;49.486;12.176;2022-07-26T13:53:29;3.20;;;1.90;;
29044;SDS011;16133;49.486;12.176;2022-07-26T13:55:54;1.77;;;1.10;;
29044;SDS011;16133;49.486;12.176;2022-07-26T13:58:20;1.33;;;1.23;;
29044;SDS011;16133;49.486;12.176;2022-07-26T14:00:46;4.03;;;1.50;;
29044;SDS011;16133;49.486;12.176;2022-07-26T14:03:12;3.10;;;1.85;;
29044;SDS011;16133;49.486;12.176;2022-07-26T14:05:38;3.45;;;1.77;;
29044;SDS011;16133;49.486;12.176;2022-07-26T14:08:04;3.90;;;1.50;;
29044;SDS011;16133;49.486;12.176;2022-07-26T14:10:30;4.38;;;1.50;;
29044;SDS011;16133;49.486;12.176;2022-07-26T14:12:56;6.85;;;1.80;;
29044;SDS011;16133;49.486;12.176;2022-07-26T14:15:22;2.10;;;1.27;;
29044;SDS011;16133;49.486;12.176;2022-07-26T14:17:49;3.42;;;1.30;;
29044;SDS011;16133;49.486;12.176;2022-07-26T14:20:15;2.55;;;1.20;;
29044;SDS011;16133;49.486;12.176;2022-07-26T14:22:41;10.13;;;1.92;;
29044;SDS011;16133;49.486;12.176;2022-07-26T14:25:06;6.68;;;1.55;;
29044;SDS011;16133;49.486;12.176;2022-07-26T14:27:32;3.95;;;1.30;;
29044;SDS011;16133;49.486;12.176;2022-07-26T14:29:57;2.97;;;1.38;;
29044;SDS011;16133;49.486;12.176;2022-07-26T14:32:23;1.98;;;1.27;;
29044;SDS011;16133;49.486;12.176;2022-07-26T14:34:48;5.00;;;1.73;;
29044;SDS011;16133;49.486;12.176;2022-07-26T14:37:14;4.38;;;1.42;;
29044;SDS011;16133;49.486;12.176;2022-07-26T14:39:40;2.65;;;1.33;;
29044;SDS011;16133;49.486;12.176;2022-07-26T14:42:05;1.98;;;1.17;;
29044;SDS011;16133;49.486;12.176;2022-07-26T14:44:32;1.65;;;1.20;;
29044;SDS011;16133;49.486;12.176;2022-07-26T14:46:58;1.73;;;1.13;;
29044;SDS011;16133;49.486;12.176;2022-07-26T14:49:23;4.22;;;1.42;;
29044;SDS011;16133;49.486;12.176;2022-07-26T14:51:50;2.00;;;1.00;;
29044;SDS011;16133;49.486;12.176;2022-07-26T14:54:16;2.92;;;0.98;;
29044;SDS011;16133;49.486;12.176;2022-07-26T14:56:42;1.98;;;0.93;;
29044;SDS011;16133;49.486;12.176;2022-07-26T14:59:07;7.57;;;1.10;;
29044;SDS011;16133;49.486;12.176;2022-07-26T15:01:33;1.40;;;1.10;;
29044;SDS011;16133;49.486;12.176;2022-07-26T15:03:58;1.92;;;0.90;;
29044;SDS011;16133;49.486;12.176;2022-07-26T15:06:23;5.20;;;1.30;;
29044;SDS011;16133;49.486;12.176;2022-07-26T15:08:49;2.25;;;1.30;;
29044;SDS011;16133;49.486;12.176;2022-07-26T15:11:14;2.20;;;1.58;;
29044;SDS011;16133;49.486;12.176;2022-07-26T15:13:40;1.60;;;1.00;;
29044;SDS011;16133;49.486;12.176;2022-07-26T15:16:06;3.22;;;1.17;;